Babuskin, Russia
Current Conditions -  °F | °C
As of 4:00 PM on Monday 24 Nov 2014 (Local Time) from UIUU Reporting Station
Smoke Smoke  
Wind Chill: 10°   Ceiling: Unl
Heat Index: 10°   Visibility: 3mi
Dew Point:   Wind: 0mph
Humidity: 62%   Direction: NA
Pressure: 29.74"   Gusts: NA
Location:  51.72°N, 105.85°E
Report Text: UIUU 240800Z 00000MPS 5000 FU FEW043 SCT100 M12/M18 Q1007 NOSIGRMK QFE711/0948 26410560
Loading
Personal Weather Stations






























Interactive Weather Map New forecast layout! Learn more

10-Day Weather Forecast

Advertisements
Track Severe Weather on mobile